Time;durP1;ratioP1;P1;durP2;ratioP2;P2;SDS_P1;SDS_P2;PMS_P1;PMS_P2;Temp;Humidity;BMP_temperature;BMP_pressure;BME280_temperature;BME280_humidity;BME280_pressure;Samples;Min_cycle;Max_cycle;Signal;HPM_P1;HPM_P2
2023/09/17 00:04:19;;;;;;;8.57;4.90;;;20.70;93.90;;;;;;20924878;28;20212;-62
2023/09/17 00:14:21;;;;;;;5.63;4.77;;;20.70;94.40;;;;;;20924309;28;20331;-63
2023/09/17 00:24:24;;;;;;;6.33;4.57;;;20.60;94.70;;;;;;20923830;28;20294;-63
2023/09/17 00:34:25;;;;;;;5.40;4.70;;;20.60;94.90;;;;;;20922809;28;20228;-63
2023/09/17 00:44:27;;;;;;;8.57;4.47;;;20.60;95.10;;;;;;20922495;28;20219;-63
2023/09/17 00:54:30;;;;;;;7.07;4.50;;;20.60;95.40;;;;;;20922621;28;20294;-63
2023/09/17 01:04:32;;;;;;;6.47;4.87;;;20.50;95.70;;;;;;20920472;28;20613;-64
2023/09/17 01:14:36;;;;;;;6.83;4.50;;;20.50;96.00;;;;;;20919439;28;20293;-71
2023/09/17 01:25:04;;;;;;;5.30;4.67;;;20.40;96.20;;;;;;20919113;28;20299;-69
2023/09/17 01:35:09;;;;;;;5.67;4.37;;;20.40;96.50;;;;;;20917954;28;20293;-71
2023/09/17 01:45:13;;;;;;;6.30;4.30;;;20.20;96.60;;;;;;20917108;28;20212;-68
2023/09/17 01:55:15;;;;;;;6.77;4.90;;;20.10;96.80;;;;;;20916072;28;20699;-70
2023/09/17 02:05:20;;;;;;;8.17;4.80;;;20.10;97.00;;;;;;20915293;28;20204;-64
2023/09/17 02:15:22;;;;;;;9.13;5.93;;;19.90;97.20;;;;;;20914822;28;20235;-72
2023/09/17 02:25:24;;;;;;;5.97;5.03;;;19.90;97.40;;;;;;20914395;28;20207;-69
2023/09/17 02:35:26;;;;;;;5.57;4.47;;;19.90;97.50;;;;;;20913582;28;20764;-63
2023/09/17 02:45:27;;;;;;;5.83;4.30;;;19.90;97.60;;;;;;20913151;28;20292;-62
2023/09/17 02:55:29;;;;;;;14.83;5.13;;;20.00;98.10;;;;;;20912671;28;20243;-63
2023/09/17 03:05:31;;;;;;;14.43;4.80;;;20.00;97.90;;;;;;20910915;28;20212;-66
2023/09/17 03:15:33;;;;;;;6.80;5.03;;;19.90;98.00;;;;;;20927025;28;20734;-66
2023/09/17 03:25:35;;;;;;;12.20;7.03;;;20.00;98.20;;;;;;20928358;28;20208;-62
2023/09/17 03:35:37;;;;;;;5.17;4.30;;;19.90;98.30;;;;;;20927161;28;20228;-62
2023/09/17 03:45:39;;;;;;;6.10;4.63;;;19.90;98.60;;;;;;20926631;28;20235;-62
2023/09/17 03:55:40;;;;;;;6.70;4.60;;;19.90;98.60;;;;;;20924952;28;20339;-69
2023/09/17 04:05:42;;;;;;;7.70;5.10;;;19.80;98.80;;;;;;20925206;28;20656;-66
2023/09/17 04:15:44;;;;;;;6.43;5.60;;;19.70;98.90;;;;;;20924720;28;20322;-66
2023/09/17 04:25:46;;;;;;;6.50;4.30;;;19.60;99.00;;;;;;20924130;28;20242;-63
2023/09/17 04:35:47;;;;;;;8.63;5.00;;;19.70;99.20;;;;;;20922895;28;20258;-64
2023/09/17 04:45:49;;;;;;;11.90;4.70;;;19.70;99.30;;;;;;20921824;28;20299;-66
2023/09/17 04:55:51;;;;;;;6.17;5.33;;;19.60;99.30;;;;;;20921317;28;20273;-64
2023/09/17 05:05:53;;;;;;;8.93;5.00;;;19.40;99.40;;;;;;20920346;28;20212;-66
2023/09/17 05:15:55;;;;;;;5.20;4.70;;;19.40;99.60;;;;;;20919432;28;20319;-63
2023/09/17 05:25:57;;;;;;;6.30;4.63;;;19.30;99.60;;;;;;20919166;28;20826;-62
2023/09/17 05:35:59;;;;;;;7.10;5.20;;;19.30;99.60;;;;;;20916830;28;20297;-63
2023/09/17 05:46:01;;;;;;;5.23;4.57;;;19.20;99.70;;;;;;20917249;28;20250;-66
2023/09/17 05:56:04;;;;;;;6.90;4.73;;;19.20;99.90;;;;;;20916514;28;20255;-66
2023/09/17 06:06:06;;;;;;;8.53;5.20;;;19.20;99.90;;;;;;20915658;28;20208;-64
2023/09/17 06:16:07;;;;;;;9.90;5.40;;;19.30;99.90;;;;;;20914602;28;20266;-64
2023/09/17 06:26:10;;;;;;;6.47;5.57;;;19.40;99.90;;;;;;20913685;28;20242;-67
2023/09/17 06:36:12;;;;;;;7.93;5.83;;;19.60;99.90;;;;;;20894794;28;20231;-69
2023/09/17 06:46:14;;;;;;;9.47;5.70;;;19.70;99.90;;;;;;20908999;28;20490;-65
2023/09/17 06:56:16;;;;;;;9.03;5.80;;;20.50;99.40;;;;;;20912542;28;20235;-66
2023/09/17 07:06:20;;;;;;;7.10;5.80;;;20.60;98.90;;;;;;20912125;28;20261;-66
2023/09/17 07:16:24;;;;;;;7.37;5.83;;;20.70;98.80;;;;;;20911660;28;20238;-64
2023/09/17 07:26:25;;;;;;;6.83;5.50;;;20.90;98.40;;;;;;20911672;28;20212;-65
2023/09/17 07:36:27;;;;;;;8.70;5.90;;;21.10;98.30;;;;;;20911043;28;20586;-63
2023/09/17 07:46:29;;;;;;;9.10;5.47;;;21.40;97.70;;;;;;20910708;28;20214;-66
2023/09/17 07:56:31;;;;;;;9.00;6.03;;;21.70;97.30;;;;;;20916535;28;20244;-68
2023/09/17 08:06:34;;;;;;;9.47;5.63;;;22.00;96.80;;;;;;20925173;28;20231;-63
2023/09/17 08:16:37;;;;;;;8.07;6.90;;;22.20;96.30;;;;;;20923895;28;20289;-63
2023/09/17 08:26:39;;;;;;;8.40;5.37;;;22.40;95.90;;;;;;20923654;28;20266;-63
2023/09/17 08:36:42;;;;;;;7.17;5.47;;;22.60;95.40;;;;;;20922601;28;20314;-66
2023/09/17 08:46:45;;;;;;;8.23;5.10;;;22.90;95.20;;;;;;20921765;28;20286;-68
2023/09/17 08:56:49;;;;;;;11.70;5.47;;;23.10;94.80;;;;;;20921251;28;20286;-71
2023/09/17 09:06:52;;;;;;;9.00;5.80;;;;;;;;;;20908160;28;20203;-67
2023/09/17 09:16:54;;;;;;;8.30;5.47;;;;;;;;;;20884072;28;20232;-70
2023/09/17 09:26:58;;;;;;;6.33;5.17;;;;;;;;;;20876223;28;20209;-68
2023/09/17 09:37:03;;;;;;;7.83;4.70;;;23.40;94.40;;;;;;20833354;28;20232;-69
2023/09/17 09:47:06;;;;;;;7.30;5.43;;;24.40;93.20;;;;;;20900566;28;20656;-69
2023/09/17 09:57:11;;;;;;;5.30;4.80;;;24.60;92.60;;;;;;20914668;28;20255;-70
2023/09/17 10:07:14;;;;;;;7.13;4.77;;;24.80;92.20;;;;;;20915971;28;20663;-67
2023/09/17 10:17:17;;;;;;;8.13;4.83;;;25.00;91.70;;;;;;20878338;28;20239;-68
2023/09/17 10:27:20;;;;;;;5.90;4.80;;;25.20;91.30;;;;;;20831746;28;20244;-61
2023/09/17 10:37:23;;;;;;;8.63;4.33;;;25.30;90.80;;;;;;20831636;28;20233;-62
2023/09/17 10:47:26;;;;;;;4.70;4.20;;;25.50;90.20;;;;;;20830644;28;20207;-62
2023/09/17 10:57:42;;;;;;;5.07;3.70;;;25.80;88.90;;;;;;20829860;28;20255;-67
2023/09/17 11:07:44;;;;;;;4.63;3.70;;;26.00;86.10;;;;;;20830254;28;20291;-66
2023/09/17 11:17:49;;;;;;;4.35;3.03;;;26.10;84.20;;;;;;20869244;28;20246;-67
2023/09/17 11:27:52;;;;;;;5.88;2.63;;;26.40;80.30;;;;;;20919578;28;20605;-70
2023/09/17 11:37:54;;;;;;;5.97;2.83;;;26.60;76.60;;;;;;20927997;28;20339;-65
2023/09/17 11:47:55;;;;;;;6.03;2.50;;;26.80;74.90;;;;;;20923849;28;20204;-65
2023/09/17 11:58:17;;;;;;;6.20;2.78;;;27.00;73.40;;;;;;20925313;28;20305;-62
2023/09/17 12:08:20;;;;;;;7.97;2.92;;;27.30;72.40;;;;;;20925024;28;20210;-61
2023/09/17 12:18:24;;;;;;;8.38;3.15;;;27.40;71.50;;;;;;20879432;28;20229;-61
2023/09/17 12:28:27;;;;;;;9.18;2.60;;;;;;;;;;20840856;28;20204;-62
2023/09/17 12:38:31;;;;;;;8.75;2.53;;;;;;;;;;20840510;28;20236;-61
2023/09/17 12:48:34;;;;;;;9.82;2.75;;;;;;;;;;20838951;28;20200;-62
2023/09/17 12:58:36;;;;;;;12.90;3.28;;;;;;;;;;20838567;28;20335;-62
2023/09/17 13:08:39;;;;;;;10.20;3.33;;;;;;;;;;20838345;28;20212;-61
2023/09/17 13:18:41;;;;;;;8.35;2.95;;;;;;;;;;20884379;28;20680;-61
2023/09/17 13:28:44;;;;;;;5.70;2.40;;;;;;;;;;20918747;28;20208;-61
2023/09/17 13:38:47;;;;;;;6.05;2.47;;;;;;;;;;20918316;28;20262;-63
2023/09/17 13:48:49;;;;;;;7.43;2.63;;;;;;;;;;20917122;28;20208;-64
2023/09/17 13:58:52;;;;;;;7.60;2.50;;;;;;;;;;20915228;28;20635;-63
2023/09/17 14:08:54;;;;;;;7.22;2.38;;;;;;;;;;20915929;28;20212;-61
2023/09/17 14:18:57;;;;;;;6.53;3.10;;;27.60;69.60;;;;;;20865491;28;20282;-61
2023/09/17 14:28:59;;;;;;;13.73;2.80;;;29.30;57.70;;;;;;20831832;28;20274;-62
2023/09/17 14:39:04;;;;;;;7.72;2.45;;;;;;;;;;20831810;28;20237;-63
2023/09/17 14:49:06;;;;;;;10.88;2.58;;;29.40;57.40;;;;;;20830979;28;20209;-61
2023/09/17 14:59:08;;;;;;;9.60;2.40;;;;;;;;;;20830495;28;20252;-61
2023/09/17 15:09:11;;;;;;;11.38;2.80;;;;;;;;;;20829966;28;20209;-61
2023/09/17 15:19:12;;;;;;;10.57;2.70;;;29.30;56.70;;;;;;20880651;28;20319;-62
2023/09/17 15:29:16;;;;;;;9.45;2.70;;;29.30;56.30;;;;;;20911434;28;20222;-61
2023/09/17 15:39:19;;;;;;;5.53;2.40;;;;;;;;;;20911271;28;20572;-60
2023/09/17 15:49:21;;;;;;;6.10;2.33;;;;;;;;;;20910551;28;20251;-61
2023/09/17 15:59:23;;;;;;;7.13;3.63;;;;;;;;;;20909966;28;20335;-61
2023/09/17 16:09:25;;;;;;;7.70;2.60;;;28.80;56.40;;;;;;20910131;28;20208;-61
2023/09/17 16:19:28;;;;;;;5.13;2.55;;;28.10;57.90;;;;;;20862848;28;20584;-65
2023/09/17 16:29:29;;;;;;;7.75;3.15;;;27.80;58.30;;;;;;20840738;28;20209;-70
2023/09/17 16:39:32;;;;;;;7.25;2.80;;;27.60;58.50;;;;;;20839828;28;20323;-68
2023/09/17 16:49:33;;;;;;;8.27;3.45;;;27.50;59.10;;;;;;20839193;28;20204;-66
2023/09/17 16:59:38;;;;;;;8.30;3.38;;;27.30;60.30;;;;;;20838399;28;20617;-62
2023/09/17 17:09:40;;;;;;;6.13;3.50;;;;;;;;;;20838262;28;20209;-64
2023/09/17 17:19:43;;;;;;;6.88;3.33;;;;;;;;;;20892746;28;20228;-65
2023/09/17 17:29:44;;;;;;;11.83;3.10;;;27.10;62.40;;;;;;20918755;28;20261;-63
2023/09/17 17:39:46;;;;;;;8.07;3.07;;;26.30;66.20;;;;;;20918364;28;20671;-60
2023/09/17 17:49:50;;;;;;;7.30;3.27;;;26.10;67.60;;;;;;20917156;28;20215;-62
2023/09/17 17:59:52;;;;;;;9.67;3.40;;;25.90;68.60;;;;;;20916476;28;20270;-61
2023/09/17 18:09:54;;;;;;;6.07;3.23;;;25.60;69.40;;;;;;20915993;28;20215;-66
2023/09/17 18:19:56;;;;;;;10.40;4.10;;;25.40;70.30;;;;;;20904127;28;20303;-62
2023/09/17 18:29:58;;;;;;;10.47;3.43;;;25.20;71.30;;;;;;20911471;28;20557;-61
2023/09/17 18:39:59;;;;;;;10.47;3.60;;;25.00;72.40;;;;;;20910175;28;20582;-63
2023/09/17 18:50:01;;;;;;;8.63;3.73;;;24.80;73.70;;;;;;20870404;28;20267;-63
2023/09/17 19:00:04;;;;;;;6.53;3.60;;;24.60;74.60;;;;;;20827930;28;20331;-63
2023/09/17 19:10:14;;;;;;;5.97;3.40;;;24.50;75.50;;;;;;20849142;28;20718;-64
2023/09/17 19:20:16;;;;;;;12.43;4.70;;;24.30;76.60;;;;;;20875132;28;20227;-64
2023/09/17 19:30:18;;;;;;;8.93;3.37;;;24.20;77.60;;;;;;20907141;28;20234;-65
2023/09/17 19:40:21;;;;;;;10.50;4.10;;;24.00;78.50;;;;;;20908816;28;20601;-64
2023/09/17 19:50:23;;;;;;;7.47;3.90;;;23.80;79.60;;;;;;20909246;28;20310;-65
2023/09/17 20:00:25;;;;;;;11.60;6.30;;;23.70;81.10;;;;;;20923285;28;20243;-63
2023/09/17 20:10:27;;;;;;;10.60;4.70;;;23.60;82.40;;;;;;20922547;28;20265;-63
2023/09/17 20:20:30;;;;;;;9.40;5.80;;;23.40;84.00;;;;;;20922868;28;20243;-63
2023/09/17 20:30:32;;;;;;;7.37;3.83;;;23.30;85.20;;;;;;20921335;28;20648;-64
2023/09/17 20:40:33;;;;;;;6.53;4.27;;;23.20;86.80;;;;;;20917977;28;20242;-63
2023/09/17 20:50:35;;;;;;;8.37;4.30;;;23.10;87.60;;;;;;20917251;28;20698;-63
2023/09/17 21:00:37;;;;;;;9.47;4.50;;;23.00;88.80;;;;;;20920356;28;20263;-62
2023/09/17 21:10:39;;;;;;;8.10;3.90;;;22.90;89.40;;;;;;20920625;28;20691;-62
2023/09/17 21:20:42;;;;;;;5.50;3.80;;;22.80;90.60;;;;;;20920174;28;20243;-62
2023/09/17 21:30:44;;;;;;;8.77;3.93;;;22.60;91.80;;;;;;20919002;28;20215;-64
2023/09/17 21:40:45;;;;;;;8.43;4.17;;;22.60;92.30;;;;;;20918067;28;20238;-62
2023/09/17 21:50:47;;;;;;;5.93;3.73;;;22.40;93.00;;;;;;20883680;28;20799;-63
2023/09/17 22:00:49;;;;;;;5.20;3.87;;;22.40;93.30;;;;;;20860772;28;20240;-62
2023/09/17 22:10:51;;;;;;;7.63;4.23;;;22.30;93.60;;;;;;20833310;28;20204;-63
2023/09/17 22:21:04;;;;;;;9.07;4.17;;;22.10;94.10;;;;;;20832228;28;20232;-62
2023/09/17 22:31:13;;;;;;;10.53;4.27;;;22.00;94.70;;;;;;20831957;28;20239;-62
2023/09/17 22:41:19;;;;;;;6.77;3.93;;;22.00;95.10;;;;;;20830083;28;20240;-62
2023/09/17 22:51:22;;;;;;;5.53;3.90;;;21.90;95.30;;;;;;20872033;28;20319;-62
2023/09/17 23:01:24;;;;;;;8.37;4.17;;;21.80;95.50;;;;;;20838830;28;20669;-62
2023/09/17 23:11:26;;;;;;;5.53;4.23;;;21.70;96.10;;;;;;20829730;28;20208;-62
2023/09/17 23:21:28;;;;;;;9.23;4.23;;;21.60;96.50;;;;;;20829654;28;20236;-62
2023/09/17 23:31:32;;;;;;;5.13;4.30;;;21.50;96.90;;;;;;20842611;28;20211;-61
2023/09/17 23:41:38;;;;;;;7.30;4.27;;;21.40;97.50;;;;;;20844952;28;20239;-61
2023/09/17 23:51:40;;;;;;;10.33;4.60;;;21.30;97.40;;;;;;20844587;28;20263;-63
